»·PEaware :: INDIE36 KWVI-KWVI

INDIE36 :: KWVI-KWVI

FLIGHT INFORMATION

Flight Status: Arrived
Operator: Unknown
More flights by this operator :: More flights under this callsign
Pilot: Indie I. (23357)
Aircraft: BEECH AIRCRAFT T-6A TEXAN
(TEX2)
More flights by this aircraft type
Origin: KWVI Watsonville Mun
United States
Destination: KWVI Watsonville Mun
United States
More flights between these airports :: More routes between these airports
Route: WVI4 SNS BSR BSR/141/5 BSR SNS
File this flight plan on PilotEdge
Remarks: after BSR / 141 / 5 delay in Hunter HIgh MOA 0+15 11000 to 17999
Altitude:
(Current/Filed)
11,000ft
Speed:
(Current/Filed)
247kts
Departed: 12-Apr-19 11:24 AM
Arrived: 12-Apr-19 12:09 PM
Distance/Time
Traveled:
0nm/0:45
Distance/Time
To Go:
Arrived

Flight Plot

Page will automatically refresh every two minutes.

Flight plan parsing failed; only flown route is shown


Map Options




Map Legend


Flown Route
Filed Route
Departure Airport
Arrival Airport
Navaid (VOR, NDB)
Fix

Horizontal Profiles

Position Reports

Time Latitude Longitude Heading Altitude Ground
Speed
12-Apr-19 10:57 36.931154 -121.792087 213 163ft 0kts
12-Apr-19 10:58 36.931144 -121.792096 213 163ft 0kts
12-Apr-19 10:59 36.931133 -121.792105 213 163ft 0kts
12-Apr-19 11:00 36.931124 -121.792113 213 163ft 0kts
12-Apr-19 11:01 36.931113 -121.792122 213 163ft 0kts
12-Apr-19 11:02 36.931102 -121.792130 213 163ft 0kts
12-Apr-19 11:03 36.931093 -121.792138 213 163ft 0kts
12-Apr-19 11:04 36.931089 -121.792141 213 163ft 0kts
12-Apr-19 11:05 36.931086 -121.792144 213 163ft 0kts
12-Apr-19 11:06 36.931083 -121.792146 213 163ft 0kts
12-Apr-19 11:07 36.931079 -121.792149 212 163ft 0kts
12-Apr-19 11:08 36.931076 -121.792152 212 163ft 0kts
12-Apr-19 11:09 36.931073 -121.792154 212 163ft 0kts
12-Apr-19 11:10 36.931069 -121.792157 212 163ft 0kts
12-Apr-19 11:11 36.931066 -121.792160 212 163ft 0kts
12-Apr-19 11:12 36.931063 -121.792162 212 163ft 0kts
12-Apr-19 11:13 36.931059 -121.792165 212 163ft 0kts
12-Apr-19 11:14 36.931057 -121.792167 212 163ft 0kts
12-Apr-19 11:15 36.931055 -121.792169 212 163ft 0kts
12-Apr-19 11:16 36.931053 -121.792171 212 163ft 0kts
12-Apr-19 11:17 36.931050 -121.792173 212 163ft 0kts
12-Apr-19 11:18 36.931048 -121.792175 212 163ft 0kts
12-Apr-19 11:19 36.931045 -121.792177 212 163ft 0kts
12-Apr-19 11:20 36.931043 -121.792179 212 163ft 0kts
12-Apr-19 11:21 36.931867 -121.791917 275 163ft 11kts
12-Apr-19 11:22 36.932185 -121.793378 25 163ft 13kts
12-Apr-19 11:23 36.954432 -121.767358 81 1733ft 176kts
12-Apr-19 11:24 36.911479 -121.756629 190 4596ft 206kts
12-Apr-19 11:25 36.856126 -121.762114 165 8046ft 201kts
12-Apr-19 11:26 36.807268 -121.717940 142 10413ft 214kts
12-Apr-19 11:27 36.757562 -121.675947 148 11010ft 213kts
12-Apr-19 11:28 36.703250 -121.637854 151 11049ft 230kts
12-Apr-19 11:29 36.649607 -121.591486 163 10985ft 233kts
12-Apr-19 11:30 36.586102 -121.604853 188 11023ft 235kts
12-Apr-19 11:31 36.520586 -121.613502 181 10888ft 243kts
12-Apr-19 11:32 36.454483 -121.620260 186 10981ft 240kts
12-Apr-19 11:33 36.388200 -121.626115 180 11064ft 237kts
12-Apr-19 11:34 36.321632 -121.628281 181 10984ft 241kts
12-Apr-19 11:35 36.255568 -121.635522 187 11030ft 240kts
12-Apr-19 11:36 36.188943 -121.639176 177 10979ft 239kts
12-Apr-19 11:37 36.128353 -121.610677 155 11030ft 238kts
12-Apr-19 11:38 36.072493 -121.580641 156 13550ft 188kts
12-Apr-19 11:39 36.022829 -121.547052 144 15709ft 214kts
12-Apr-19 11:40 35.993967 -121.488421 48 15943ft 266kts
12-Apr-19 11:41 35.951633 -121.429554 140 16864ft 265kts
12-Apr-19 11:42 35.889319 -121.382832 145 17388ft 269kts
12-Apr-19 11:43 35.851383 -121.413362 324 16186ft 289kts
12-Apr-19 11:44 35.913415 -121.441071 340 17591ft 213kts
12-Apr-19 11:45 35.976996 -121.503980 320 14791ft 281kts
12-Apr-19 11:46 36.033988 -121.551102 330 14415ft 220kts
12-Apr-19 11:47 36.084549 -121.534322 87 13625ft 243kts
12-Apr-19 11:48 36.043094 -121.523957 247 14103ft 219kts
12-Apr-19 11:50 36.063207 -121.585523 348 14378ft 234kts
12-Apr-19 11:51 36.131000 -121.620411 335 12085ft 242kts
12-Apr-19 11:52 36.192912 -121.647816 344 11298ft 235kts
12-Apr-19 11:53 36.261056 -121.635761 8 11000ft 251kts
12-Apr-19 11:54 36.327330 -121.628914 2 8167ft 219kts
12-Apr-19 11:55 36.386500 -121.627028 357 6978ft 224kts
12-Apr-19 11:56 36.450679 -121.624484 3 6914ft 234kts
12-Apr-19 11:57 36.512822 -121.618605 2 5953ft 222kts
12-Apr-19 11:58 36.572898 -121.612676 5 4966ft 213kts
12-Apr-19 11:59 36.632021 -121.605603 1 4792ft 214kts
12-Apr-19 12:00 36.681688 -121.613972 313 4009ft 157kts
12-Apr-19 12:01 36.722145 -121.642217 332 3651ft 168kts
12-Apr-19 12:02 36.761544 -121.670508 330 3719ft 163kts
12-Apr-19 12:03 36.801960 -121.695192 336 3545ft 152kts
12-Apr-19 12:04 36.838995 -121.717651 329 2284ft 150kts
12-Apr-19 12:05 36.870189 -121.741307 327 1952ft 122kts
12-Apr-19 12:06 36.899809 -121.763381 331 1371ft 120kts
12-Apr-19 12:07 36.930527 -121.770091 28 1131ft 120kts
12-Apr-19 12:08 36.949234 -121.774772 242 545ft 109kts
12-Apr-19 12:09 36.931860 -121.793566 210 163ft 0kts

Navigation Log

Ident Type
Flight plan parsing failed, navigation log unavailable